sensor_id;sensor_type;location;lat;lon;timestamp;temperature;humidity
9723;DHT22;4900;49.306;8.500;2023-04-27T00:01:57;8.97;60.96
9723;DHT22;4900;49.306;8.500;2023-04-27T00:04:22;8.92;61.00
9723;DHT22;4900;49.306;8.500;2023-04-27T00:06:47;8.85;60.98
9723;DHT22;4900;49.306;8.500;2023-04-27T00:09:13;8.79;61.16
9723;DHT22;4900;49.306;8.500;2023-04-27T00:11:38;8.72;61.12
9723;DHT22;4900;49.306;8.500;2023-04-27T00:14:03;8.66;61.12
9723;DHT22;4900;49.306;8.500;2023-04-27T00:16:29;8.62;61.04
9723;DHT22;4900;49.306;8.500;2023-04-27T00:18:54;8.56;60.93
9723;DHT22;4900;49.306;8.500;2023-04-27T00:21:20;8.49;60.93
9723;DHT22;4900;49.306;8.500;2023-04-27T00:23:45;8.42;61.12
9723;DHT22;4900;49.306;8.500;2023-04-27T00:26:11;8.35;61.32
9723;DHT22;4900;49.306;8.500;2023-04-27T00:28:36;8.30;61.41
9723;DHT22;4900;49.306;8.500;2023-04-27T00:31:02;8.24;61.63
9723;DHT22;4900;49.306;8.500;2023-04-27T00:33:28;8.20;61.67
9723;DHT22;4900;49.306;8.500;2023-04-27T00:35:58;8.16;61.79
9723;DHT22;4900;49.306;8.500;2023-04-27T00:38:24;8.13;61.73
9723;DHT22;4900;49.306;8.500;2023-04-27T00:40:51;8.10;61.81
9723;DHT22;4900;49.306;8.500;2023-04-27T00:43:16;8.03;62.08
9723;DHT22;4900;49.306;8.500;2023-04-27T00:45:42;8.00;62.13
9723;DHT22;4900;49.306;8.500;2023-04-27T00:48:09;7.90;62.26
9723;DHT22;4900;49.306;8.500;2023-04-27T00:50:35;7.85;62.56
9723;DHT22;4900;49.306;8.500;2023-04-27T00:53:03;7.79;62.46
9723;DHT22;4900;49.306;8.500;2023-04-27T00:55:29;7.77;62.56
9723;DHT22;4900;49.306;8.500;2023-04-27T00:57:55;7.72;62.72
9723;DHT22;4900;49.306;8.500;2023-04-27T01:00:20;7.69;62.73
9723;DHT22;4900;49.306;8.500;2023-04-27T01:02:46;7.63;62.86
9723;DHT22;4900;49.306;8.500;2023-04-27T01:05:14;7.63;62.71
9723;DHT22;4900;49.306;8.500;2023-04-27T01:07:40;7.59;62.72
9723;DHT22;4900;49.306;8.500;2023-04-27T01:10:07;7.54;62.95
9723;DHT22;4900;49.306;8.500;2023-04-27T01:12:32;7.52;63.00
9723;DHT22;4900;49.306;8.500;2023-04-27T01:14:58;7.50;63.19
9723;DHT22;4900;49.306;8.500;2023-04-27T01:17:23;7.45;63.52
9723;DHT22;4900;49.306;8.500;2023-04-27T01:19:49;7.41;63.79
9723;DHT22;4900;49.306;8.500;2023-04-27T01:22:15;7.41;64.25
9723;DHT22;4900;49.306;8.500;2023-04-27T01:24:41;7.34;64.36
9723;DHT22;4900;49.306;8.500;2023-04-27T01:27:07;7.31;64.44
9723;DHT22;4900;49.306;8.500;2023-04-27T01:29:32;7.30;64.71
9723;DHT22;4900;49.306;8.500;2023-04-27T01:31:57;7.31;64.91
9723;DHT22;4900;49.306;8.500;2023-04-27T01:34:23;7.26;64.93
9723;DHT22;4900;49.306;8.500;2023-04-27T01:36:49;7.23;65.07
9723;DHT22;4900;49.306;8.500;2023-04-27T01:39:14;7.17;65.26
9723;DHT22;4900;49.306;8.500;2023-04-27T01:41:40;7.15;65.41
9723;DHT22;4900;49.306;8.500;2023-04-27T01:44:06;7.12;65.72
9723;DHT22;4900;49.306;8.500;2023-04-27T01:46:31;7.13;65.95
9723;DHT22;4900;49.306;8.500;2023-04-27T01:48:58;7.13;66.03
9723;DHT22;4900;49.306;8.500;2023-04-27T01:51:24;7.12;66.22
9723;DHT22;4900;49.306;8.500;2023-04-27T01:53:49;7.19;66.45
9723;DHT22;4900;49.306;8.500;2023-04-27T01:56:15;7.22;66.64
9723;DHT22;4900;49.306;8.500;2023-04-27T01:58:40;7.20;66.74
9723;DHT22;4900;49.306;8.500;2023-04-27T02:01:06;7.20;66.79
9723;DHT22;4900;49.306;8.500;2023-04-27T02:03:31;7.24;66.89
9723;DHT22;4900;49.306;8.500;2023-04-27T02:05:56;7.28;66.81
9723;DHT22;4900;49.306;8.500;2023-04-27T02:08:22;7.31;67.04
9723;DHT22;4900;49.306;8.500;2023-04-27T02:10:47;7.40;67.15
9723;DHT22;4900;49.306;8.500;2023-04-27T02:13:13;7.47;67.11
9723;DHT22;4900;49.306;8.500;2023-04-27T02:15:38;7.52;67.19
9723;DHT22;4900;49.306;8.500;2023-04-27T02:18:04;7.62;66.96
9723;DHT22;4900;49.306;8.500;2023-04-27T02:20:30;7.71;66.76
9723;DHT22;4900;49.306;8.500;2023-04-27T02:22:56;7.77;67.08
9723;DHT22;4900;49.306;8.500;2023-04-27T02:25:21;7.82;67.12
9723;DHT22;4900;49.306;8.500;2023-04-27T02:27:47;7.86;67.25
9723;DHT22;4900;49.306;8.500;2023-04-27T02:30:13;7.93;66.94
9723;DHT22;4900;49.306;8.500;2023-04-27T02:32:39;8.00;66.61
9723;DHT22;4900;49.306;8.500;2023-04-27T02:35:05;8.07;66.29
9723;DHT22;4900;49.306;8.500;2023-04-27T02:37:32;8.13;66.03
9723;DHT22;4900;49.306;8.500;2023-04-27T02:39:58;8.17;65.89
9723;DHT22;4900;49.306;8.500;2023-04-27T02:42:24;8.24;65.78
9723;DHT22;4900;49.306;8.500;2023-04-27T02:44:49;8.28;65.60
9723;DHT22;4900;49.306;8.500;2023-04-27T02:47:15;8.31;65.51
9723;DHT22;4900;49.306;8.500;2023-04-27T02:49:40;8.35;65.36
9723;DHT22;4900;49.306;8.500;2023-04-27T02:52:05;8.40;65.28
9723;DHT22;4900;49.306;8.500;2023-04-27T02:54:31;8.42;65.16
9723;DHT22;4900;49.306;8.500;2023-04-27T02:56:57;8.48;64.98
9723;DHT22;4900;49.306;8.500;2023-04-27T02:59:22;8.48;64.98
9723;DHT22;4900;49.306;8.500;2023-04-27T03:01:48;8.52;64.77
9723;DHT22;4900;49.306;8.500;2023-04-27T03:04:13;8.54;64.61
9723;DHT22;4900;49.306;8.500;2023-04-27T03:06:43;8.58;64.48
9723;DHT22;4900;49.306;8.500;2023-04-27T03:09:08;8.59;64.32
9723;DHT22;4900;49.306;8.500;2023-04-27T03:11:37;8.61;64.22
9723;DHT22;4900;49.306;8.500;2023-04-27T03:14:03;8.62;64.06
9723;DHT22;4900;49.306;8.500;2023-04-27T03:16:32;8.63;64.13
9723;DHT22;4900;49.306;8.500;2023-04-27T03:18:58;8.65;63.93
9723;DHT22;4900;49.306;8.500;2023-04-27T03:21:23;8.65;64.12
9723;DHT22;4900;49.306;8.500;2023-04-27T03:23:49;8.59;64.29
9723;DHT22;4900;49.306;8.500;2023-04-27T03:26:14;8.56;64.43
9723;DHT22;4900;49.306;8.500;2023-04-27T03:28:40;8.59;64.43
9723;DHT22;4900;49.306;8.500;2023-04-27T03:31:07;8.61;64.23
9723;DHT22;4900;49.306;8.500;2023-04-27T03:33:33;8.62;64.22
9723;DHT22;4900;49.306;8.500;2023-04-27T03:35:59;8.65;64.09
9723;DHT22;4900;49.306;8.500;2023-04-27T03:38:25;8.65;64.05
9723;DHT22;4900;49.306;8.500;2023-04-27T03:40:51;8.63;64.02
9723;DHT22;4900;49.306;8.500;2023-04-27T03:43:18;8.65;63.96
9723;DHT22;4900;49.306;8.500;2023-04-27T03:45:43;8.66;63.86
9723;DHT22;4900;49.306;8.500;2023-04-27T03:48:09;8.68;63.83
9723;DHT22;4900;49.306;8.500;2023-04-27T03:50:35;8.68;63.74
9723;DHT22;4900;49.306;8.500;2023-04-27T03:53:00;8.71;63.56
9723;DHT22;4900;49.306;8.500;2023-04-27T03:55:25;8.72;63.58
9723;DHT22;4900;49.306;8.500;2023-04-27T03:57:51;8.75;63.50
9723;DHT22;4900;49.306;8.500;2023-04-27T04:00:17;8.77;63.50
9723;DHT22;4900;49.306;8.500;2023-04-27T04:02:43;8.79;63.40
9723;DHT22;4900;49.306;8.500;2023-04-27T04:05:09;8.79;63.21
9723;DHT22;4900;49.306;8.500;2023-04-27T04:07:35;8.80;63.25
9723;DHT22;4900;49.306;8.500;2023-04-27T04:10:00;8.80;63.25
9723;DHT22;4900;49.306;8.500;2023-04-27T04:12:26;8.82;63.15
9723;DHT22;4900;49.306;8.500;2023-04-27T04:14:52;8.88;63.10
9723;DHT22;4900;49.306;8.500;2023-04-27T04:17:17;8.90;62.89
9723;DHT22;4900;49.306;8.500;2023-04-27T04:19:43;8.90;62.73
9723;DHT22;4900;49.306;8.500;2023-04-27T04:22:08;8.95;62.60
9723;DHT22;4900;49.306;8.500;2023-04-27T04:24:34;8.99;62.64
9723;DHT22;4900;49.306;8.500;2023-04-27T04:27:00;8.97;62.71
9723;DHT22;4900;49.306;8.500;2023-04-27T04:29:26;9.01;62.56
9723;DHT22;4900;49.306;8.500;2023-04-27T04:31:54;9.04;62.50
9723;DHT22;4900;49.306;8.500;2023-04-27T04:34:20;9.06;62.51
9723;DHT22;4900;49.306;8.500;2023-04-27T04:36:47;9.06;62.49
9723;DHT22;4900;49.306;8.500;2023-04-27T04:39:16;9.04;62.53
9723;DHT22;4900;49.306;8.500;2023-04-27T04:41:44;9.11;62.50
9723;DHT22;4900;49.306;8.500;2023-04-27T04:44:09;9.16;62.59
9723;DHT22;4900;49.306;8.500;2023-04-27T04:46:35;9.18;62.47
9723;DHT22;4900;49.306;8.500;2023-04-27T04:49:01;9.27;62.44
9723;DHT22;4900;49.306;8.500;2023-04-27T04:51:27;9.32;62.40
9723;DHT22;4900;49.306;8.500;2023-04-27T04:53:52;9.34;62.36
9723;DHT22;4900;49.306;8.500;2023-04-27T04:56:18;9.34;62.44
9723;DHT22;4900;49.306;8.500;2023-04-27T04:58:43;9.36;62.43
9723;DHT22;4900;49.306;8.500;2023-04-27T05:01:08;9.42;62.34
9723;DHT22;4900;49.306;8.500;2023-04-27T05:03:34;9.45;62.27
9723;DHT22;4900;49.306;8.500;2023-04-27T05:05:59;9.53;62.12
9723;DHT22;4900;49.306;8.500;2023-04-27T05:08:25;9.58;62.01
9723;DHT22;4900;49.306;8.500;2023-04-27T05:10:52;9.70;61.90
9723;DHT22;4900;49.306;8.500;2023-04-27T05:13:18;9.76;61.75
9723;DHT22;4900;49.306;8.500;2023-04-27T05:15:44;9.86;61.60
9723;DHT22;4900;49.306;8.500;2023-04-27T05:18:09;9.93;61.43
9723;DHT22;4900;49.306;8.500;2023-04-27T05:20:35;10.04;61.41
9723;DHT22;4900;49.306;8.500;2023-04-27T05:23:01;10.10;61.34
9723;DHT22;4900;49.306;8.500;2023-04-27T05:25:30;10.24;61.17
9723;DHT22;4900;49.306;8.500;2023-04-27T05:27:56;10.34;60.93
9723;DHT22;4900;49.306;8.500;2023-04-27T05:30:21;10.44;60.81
9723;DHT22;4900;49.306;8.500;2023-04-27T05:32:47;10.52;60.76
9723;DHT22;4900;49.306;8.500;2023-04-27T05:35:12;10.62;60.69
9723;DHT22;4900;49.306;8.500;2023-04-27T05:37:38;10.72;60.36
9723;DHT22;4900;49.306;8.500;2023-04-27T05:40:04;10.81;60.04
9723;DHT22;4900;49.306;8.500;2023-04-27T05:42:30;10.93;59.64
9723;DHT22;4900;49.306;8.500;2023-04-27T05:44:56;11.06;59.40
9723;DHT22;4900;49.306;8.500;2023-04-27T05:47:21;11.14;59.18
9723;DHT22;4900;49.306;8.500;2023-04-27T05:49:51;11.28;58.89
9723;DHT22;4900;49.306;8.500;2023-04-27T05:52:19;11.41;58.75
9723;DHT22;4900;49.306;8.500;2023-04-27T05:54:48;11.56;58.59
9723;DHT22;4900;49.306;8.500;2023-04-27T05:57:14;11.73;58.32
9723;DHT22;4900;49.306;8.500;2023-04-27T05:59:40;11.87;57.98
9723;DHT22;4900;49.306;8.500;2023-04-27T06:02:06;12.04;57.61
9723;DHT22;4900;49.306;8.500;2023-04-27T06:04:32;12.21;57.28
9723;DHT22;4900;49.306;8.500;2023-04-27T06:06:58;12.38;56.87
9723;DHT22;4900;49.306;8.500;2023-04-27T06:09:23;12.48;56.35
9723;DHT22;4900;49.306;8.500;2023-04-27T06:11:49;12.66;55.93
9723;DHT22;4900;49.306;8.500;2023-04-27T06:14:14;12.81;55.63
9723;DHT22;4900;49.306;8.500;2023-04-27T06:16:40;12.96;55.21
9723;DHT22;4900;49.306;8.500;2023-04-27T06:19:06;13.12;54.86
9723;DHT22;4900;49.306;8.500;2023-04-27T06:21:32;13.29;54.43
9723;DHT22;4900;49.306;8.500;2023-04-27T06:23:58;13.40;54.24
9723;DHT22;4900;49.306;8.500;2023-04-27T06:26:24;13.54;53.89
9723;DHT22;4900;49.306;8.500;2023-04-27T06:28:49;13.69;53.78
9723;DHT22;4900;49.306;8.500;2023-04-27T06:31:15;13.94;53.35
9723;DHT22;4900;49.306;8.500;2023-04-27T06:33:41;14.18;52.92
9723;DHT22;4900;49.306;8.500;2023-04-27T06:36:06;14.36;52.54
9723;DHT22;4900;49.306;8.500;2023-04-27T06:38:32;14.48;52.35
9723;DHT22;4900;49.306;8.500;2023-04-27T06:40:57;14.66;51.68
9723;DHT22;4900;49.306;8.500;2023-04-27T06:43:23;14.87;51.37
9723;DHT22;4900;49.306;8.500;2023-04-27T06:45:49;14.97;51.25
9723;DHT22;4900;49.306;8.500;2023-04-27T06:48:14;15.14;51.09
9723;DHT22;4900;49.306;8.500;2023-04-27T06:50:41;15.04;50.73
9723;DHT22;4900;49.306;8.500;2023-04-27T06:53:06;15.32;50.25
9723;DHT22;4900;49.306;8.500;2023-04-27T06:55:32;15.53;50.06
9723;DHT22;4900;49.306;8.500;2023-04-27T06:57:58;15.82;49.85
9723;DHT22;4900;49.306;8.500;2023-04-27T07:00:23;16.02;49.31
9723;DHT22;4900;49.306;8.500;2023-04-27T07:02:49;16.22;48.62
9723;DHT22;4900;49.306;8.500;2023-04-27T07:05:14;16.33;48.30
9723;DHT22;4900;49.306;8.500;2023-04-27T07:07:40;16.63;47.60
9723;DHT22;4900;49.306;8.500;2023-04-27T07:10:06;16.67;47.06
9723;DHT22;4900;49.306;8.500;2023-04-27T07:12:32;17.18;46.36
9723;DHT22;4900;49.306;8.500;2023-04-27T07:14:57;17.61;45.82
9723;DHT22;4900;49.306;8.500;2023-04-27T07:17:23;17.75;45.59
9723;DHT22;4900;49.306;8.500;2023-04-27T07:19:48;18.05;45.14
9723;DHT22;4900;49.306;8.500;2023-04-27T07:22:14;18.22;44.80
9723;DHT22;4900;49.306;8.500;2023-04-27T07:24:40;18.31;44.16
9723;DHT22;4900;49.306;8.500;2023-04-27T07:27:06;18.36;44.23
9723;DHT22;4900;49.306;8.500;2023-04-27T07:29:32;18.40;43.33
9723;DHT22;4900;49.306;8.500;2023-04-27T07:31:58;18.43;42.95
9723;DHT22;4900;49.306;8.500;2023-04-27T07:34:23;18.13;42.73
9723;DHT22;4900;49.306;8.500;2023-04-27T07:36:50;18.40;42.46
9723;DHT22;4900;49.306;8.500;2023-04-27T07:39:16;18.74;41.84
9723;DHT22;4900;49.306;8.500;2023-04-27T07:41:41;18.81;41.45
9723;DHT22;4900;49.306;8.500;2023-04-27T07:44:07;18.63;41.72
9723;DHT22;4900;49.306;8.500;2023-04-27T07:46:32;18.79;41.09
9723;DHT22;4900;49.306;8.500;2023-04-27T07:48:58;18.99;41.05
9723;DHT22;4900;49.306;8.500;2023-04-27T07:51:24;19.33;40.47
9723;DHT22;4900;49.306;8.500;2023-04-27T07:53:49;19.43;40.46
9723;DHT22;4900;49.306;8.500;2023-04-27T07:56:15;20.05;39.98
9723;DHT22;4900;49.306;8.500;2023-04-27T07:58:42;20.65;39.38
9723;DHT22;4900;49.306;8.500;2023-04-27T08:01:08;20.96;38.64
9723;DHT22;4900;49.306;8.500;2023-04-27T08:03:33;21.54;37.68
9723;DHT22;4900;49.306;8.500;2023-04-27T08:05:58;21.72;37.05
9723;DHT22;4900;49.306;8.500;2023-04-27T08:08:24;22.17;36.77
9723;DHT22;4900;49.306;8.500;2023-04-27T08:10:49;22.20;36.26
9723;DHT22;4900;49.306;8.500;2023-04-27T08:13:15;22.69;36.07
9723;DHT22;4900;49.306;8.500;2023-04-27T08:15:40;22.88;35.85
9723;DHT22;4900;49.306;8.500;2023-04-27T08:18:06;23.09;35.21
9723;DHT22;4900;49.306;8.500;2023-04-27T08:20:31;23.02;35.05
9723;DHT22;4900;49.306;8.500;2023-04-27T08:22:57;23.19;34.94
9723;DHT22;4900;49.306;8.500;2023-04-27T08:25:22;23.27;34.89
9723;DHT22;4900;49.306;8.500;2023-04-27T08:27:47;23.40;34.54
9723;DHT22;4900;49.306;8.500;2023-04-27T08:30:13;23.66;34.11
9723;DHT22;4900;49.306;8.500;2023-04-27T08:32:38;23.62;34.01
9723;DHT22;4900;49.306;8.500;2023-04-27T08:35:05;24.03;34.06
9723;DHT22;4900;49.306;8.500;2023-04-27T08:37:30;24.55;33.49
9723;DHT22;4900;49.306;8.500;2023-04-27T08:39:56;24.68;32.47
9723;DHT22;4900;49.306;8.500;2023-04-27T08:42:21;24.80;32.55
9723;DHT22;4900;49.306;8.500;2023-04-27T08:44:47;25.03;32.18
9723;DHT22;4900;49.306;8.500;2023-04-27T08:47:12;25.17;31.85
9723;DHT22;4900;49.306;8.500;2023-04-27T08:49:38;25.03;32.15
9723;DHT22;4900;49.306;8.500;2023-04-27T08:52:15;25.67;30.94
9723;DHT22;4900;49.306;8.500;2023-04-27T08:54:41;25.96;30.51
9723;DHT22;4900;49.306;8.500;2023-04-27T08:57:12;25.22;31.05
9723;DHT22;4900;49.306;8.500;2023-04-27T08:59:38;25.41;31.04
9723;DHT22;4900;49.306;8.500;2023-04-27T09:02:05;25.81;31.14
9723;DHT22;4900;49.306;8.500;2023-04-27T09:04:39;25.97;30.51
9723;DHT22;4900;49.306;8.500;2023-04-27T09:07:16;26.23;30.53
9723;DHT22;4900;49.306;8.500;2023-04-27T09:09:42;26.47;30.39
9723;DHT22;4900;49.306;8.500;2023-04-27T09:12:15;26.54;29.94
9723;DHT22;4900;49.306;8.500;2023-04-27T09:14:42;26.45;29.71
9723;DHT22;4900;49.306;8.500;2023-04-27T09:17:07;26.68;29.60
9723;DHT22;4900;49.306;8.500;2023-04-27T09:19:32;26.85;29.42
9723;DHT22;4900;49.306;8.500;2023-04-27T09:22:05;27.12;28.79
9723;DHT22;4900;49.306;8.500;2023-04-27T09:24:31;27.19;28.70
9723;DHT22;4900;49.306;8.500;2023-04-27T09:26:57;27.69;28.93
9723;DHT22;4900;49.306;8.500;2023-04-27T09:29:36;27.88;28.29
9723;DHT22;4900;49.306;8.500;2023-04-27T09:32:02;28.13;28.34
9723;DHT22;4900;49.306;8.500;2023-04-27T09:34:38;28.17;27.98
9723;DHT22;4900;49.306;8.500;2023-04-27T09:37:05;28.49;28.09
9723;DHT22;4900;49.306;8.500;2023-04-27T09:39:31;28.75;27.40
9723;DHT22;4900;49.306;8.500;2023-04-27T09:41:57;28.52;26.61
9723;DHT22;4900;49.306;8.500;2023-04-27T09:44:23;28.58;26.70
9723;DHT22;4900;49.306;8.500;2023-04-27T09:46:50;28.76;26.84
9723;DHT22;4900;49.306;8.500;2023-04-27T09:49:17;28.85;26.48
9723;DHT22;4900;49.306;8.500;2023-04-27T09:51:43;29.10;26.61
9723;DHT22;4900;49.306;8.500;2023-04-27T09:54:10;29.37;26.17
9723;DHT22;4900;49.306;8.500;2023-04-27T09:59:44;30.09;26.20
9723;DHT22;4900;49.306;8.500;2023-04-27T10:02:15;30.37;25.90
9723;DHT22;4900;49.306;8.500;2023-04-27T10:07:38;30.47;25.76
9723;DHT22;4900;49.306;8.500;2023-04-27T10:10:04;30.58;25.82
9723;DHT22;4900;49.306;8.500;2023-04-27T10:12:35;30.28;26.01
9723;DHT22;4900;49.306;8.500;2023-04-27T10:15:17;30.12;26.29
9723;DHT22;4900;49.306;8.500;2023-04-27T10:17:50;30.00;26.28
9723;DHT22;4900;49.306;8.500;2023-04-27T10:20:28;29.90;26.03
9723;DHT22;4900;49.306;8.500;2023-04-27T10:22:54;29.73;26.42
9723;DHT22;4900;49.306;8.500;2023-04-27T10:25:26;29.85;26.14
9723;DHT22;4900;49.306;8.500;2023-04-27T10:28:00;30.10;26.90
9723;DHT22;4900;49.306;8.500;2023-04-27T10:30:34;30.27;26.33
9723;DHT22;4900;49.306;8.500;2023-04-27T10:33:08;30.76;26.19
9723;DHT22;4900;49.306;8.500;2023-04-27T10:35:39;30.99;25.55
9723;DHT22;4900;49.306;8.500;2023-04-27T10:38:16;30.95;25.13
9723;DHT22;4900;49.306;8.500;2023-04-27T10:40:44;30.98;25.10
9723;DHT22;4900;49.306;8.500;2023-04-27T10:43:12;31.16;24.82
9723;DHT22;4900;49.306;8.500;2023-04-27T10:45:39;31.17;25.05
9723;DHT22;4900;49.306;8.500;2023-04-27T10:48:05;31.48;24.83
9723;DHT22;4900;49.306;8.500;2023-04-27T10:50:31;31.31;24.54
9723;DHT22;4900;49.306;8.500;2023-04-27T10:53:03;31.71;24.34
9723;DHT22;4900;49.306;8.500;2023-04-27T10:55:29;31.75;24.18
9723;DHT22;4900;49.306;8.500;2023-04-27T10:57:56;31.81;24.14
9723;DHT22;4900;49.306;8.500;2023-04-27T11:00:23;31.93;23.59
9723;DHT22;4900;49.306;8.500;2023-04-27T11:02:50;31.95;23.22
9723;DHT22;4900;49.306;8.500;2023-04-27T11:05:20;31.96;22.99
9723;DHT22;4900;49.306;8.500;2023-04-27T11:07:46;32.27;23.23
9723;DHT22;4900;49.306;8.500;2023-04-27T11:10:21;32.27;22.28
9723;DHT22;4900;49.306;8.500;2023-04-27T11:12:46;32.29;23.10
9723;DHT22;4900;49.306;8.500;2023-04-27T11:15:12;32.20;22.37
9723;DHT22;4900;49.306;8.500;2023-04-27T11:17:38;32.05;22.40
9723;DHT22;4900;49.306;8.500;2023-04-27T11:20:04;31.86;22.55
9723;DHT22;4900;49.306;8.500;2023-04-27T11:22:33;31.99;22.43
9723;DHT22;4900;49.306;8.500;2023-04-27T11:24:59;31.96;22.42
9723;DHT22;4900;49.306;8.500;2023-04-27T11:27:35;31.92;22.56
9723;DHT22;4900;49.306;8.500;2023-04-27T11:30:01;31.60;22.90
9723;DHT22;4900;49.306;8.500;2023-04-27T11:32:26;31.61;23.06
9723;DHT22;4900;49.306;8.500;2023-04-27T11:34:52;31.88;23.16
9723;DHT22;4900;49.306;8.500;2023-04-27T11:37:22;32.10;23.06
9723;DHT22;4900;49.306;8.500;2023-04-27T11:39:49;31.96;23.02
9723;DHT22;4900;49.306;8.500;2023-04-27T11:45:03;32.06;22.71
9723;DHT22;4900;49.306;8.500;2023-04-27T11:47:33;32.03;22.85
9723;DHT22;4900;49.306;8.500;2023-04-27T11:50:02;31.96;23.00
9723;DHT22;4900;49.306;8.500;2023-04-27T11:52:33;31.89;22.73
9723;DHT22;4900;49.306;8.500;2023-04-27T11:55:00;32.01;22.97
9723;DHT22;4900;49.306;8.500;2023-04-27T11:57:28;32.26;22.85
9723;DHT22;4900;49.306;8.500;2023-04-27T11:59:55;32.41;22.48
9723;DHT22;4900;49.306;8.500;2023-04-27T12:02:22;32.91;22.55
9723;DHT22;4900;49.306;8.500;2023-04-27T12:04:48;33.19;22.13
9723;DHT22;4900;49.306;8.500;2023-04-27T12:07:14;33.11;21.54
9723;DHT22;4900;49.306;8.500;2023-04-27T12:09:39;33.23;21.20
9723;DHT22;4900;49.306;8.500;2023-04-27T12:12:05;32.82;20.91
9723;DHT22;4900;49.306;8.500;2023-04-27T12:14:31;32.50;20.85
9723;DHT22;4900;49.306;8.500;2023-04-27T12:16:57;32.71;20.69
9723;DHT22;4900;49.306;8.500;2023-04-27T12:19:22;32.30;20.28
9723;DHT22;4900;49.306;8.500;2023-04-27T12:21:51;32.34;20.63
9723;DHT22;4900;49.306;8.500;2023-04-27T12:24:17;32.45;21.00
9723;DHT22;4900;49.306;8.500;2023-04-27T12:26:42;32.41;20.60
9723;DHT22;4900;49.306;8.500;2023-04-27T12:29:08;32.23;20.74
9723;DHT22;4900;49.306;8.500;2023-04-27T12:31:33;32.24;21.40
9723;DHT22;4900;49.306;8.500;2023-04-27T12:34:00;32.30;21.47
9723;DHT22;4900;49.306;8.500;2023-04-27T12:36:25;32.32;21.47
9723;DHT22;4900;49.306;8.500;2023-04-27T12:38:53;32.29;21.23
9723;DHT22;4900;49.306;8.500;2023-04-27T12:41:18;32.37;21.09
9723;DHT22;4900;49.306;8.500;2023-04-27T12:43:44;32.24;21.21
9723;DHT22;4900;49.306;8.500;2023-04-27T12:46:11;32.05;21.37
9723;DHT22;4900;49.306;8.500;2023-04-27T12:48:36;32.26;21.15
9723;DHT22;4900;49.306;8.500;2023-04-27T12:51:02;32.51;20.96
9723;DHT22;4900;49.306;8.500;2023-04-27T12:53:28;32.82;21.30
9723;DHT22;4900;49.306;8.500;2023-04-27T12:55:53;33.02;21.42
9723;DHT22;4900;49.306;8.500;2023-04-27T12:58:19;32.96;21.13
9723;DHT22;4900;49.306;8.500;2023-04-27T13:00:45;33.23;20.83
9723;DHT22;4900;49.306;8.500;2023-04-27T13:03:11;33.67;20.62
9723;DHT22;4900;49.306;8.500;2023-04-27T13:05:36;33.56;20.33
9723;DHT22;4900;49.306;8.500;2023-04-27T13:08:02;33.90;20.38
9723;DHT22;4900;49.306;8.500;2023-04-27T13:10:27;33.95;20.41
9723;DHT22;4900;49.306;8.500;2023-04-27T13:12:53;34.25;20.43
9723;DHT22;4900;49.306;8.500;2023-04-27T13:15:19;34.39;20.09
9723;DHT22;4900;49.306;8.500;2023-04-27T13:17:45;33.99;20.37
9723;DHT22;4900;49.306;8.500;2023-04-27T13:20:10;34.40;19.98
9723;DHT22;4900;49.306;8.500;2023-04-27T13:22:36;34.44;20.14
9723;DHT22;4900;49.306;8.500;2023-04-27T13:25:05;34.47;19.99
9723;DHT22;4900;49.306;8.500;2023-04-27T13:27:30;34.19;20.28
9723;DHT22;4900;49.306;8.500;2023-04-27T13:29:56;34.23;20.23
9723;DHT22;4900;49.306;8.500;2023-04-27T13:32:21;33.61;19.93
9723;DHT22;4900;49.306;8.500;2023-04-27T13:34:47;34.01;20.27
9723;DHT22;4900;49.306;8.500;2023-04-27T13:37:13;33.97;19.99
9723;DHT22;4900;49.306;8.500;2023-04-27T13:39:38;34.04;20.37
9723;DHT22;4900;49.306;8.500;2023-04-27T13:42:04;33.99;19.57
9723;DHT22;4900;49.306;8.500;2023-04-27T13:44:30;33.27;20.29
9723;DHT22;4900;49.306;8.500;2023-04-27T13:46:55;33.40;20.49
9723;DHT22;4900;49.306;8.500;2023-04-27T13:49:21;33.26;20.64
9723;DHT22;4900;49.306;8.500;2023-04-27T13:51:47;33.02;21.05
9723;DHT22;4900;49.306;8.500;2023-04-27T13:54:12;32.92;21.07
9723;DHT22;4900;49.306;8.500;2023-04-27T13:56:38;32.72;21.18
9723;DHT22;4900;49.306;8.500;2023-04-27T13:59:03;32.86;21.13
9723;DHT22;4900;49.306;8.500;2023-04-27T14:01:29;32.94;21.11
9723;DHT22;4900;49.306;8.500;2023-04-27T14:03:54;32.86;21.30
9723;DHT22;4900;49.306;8.500;2023-04-27T14:06:20;32.65;21.40
9723;DHT22;4900;49.306;8.500;2023-04-27T14:08:45;32.64;21.45
9723;DHT22;4900;49.306;8.500;2023-04-27T14:11:11;32.61;21.51
9723;DHT22;4900;49.306;8.500;2023-04-27T14:13:37;32.44;21.46
9723;DHT22;4900;49.306;8.500;2023-04-27T14:16:02;32.23;21.23
9723;DHT22;4900;49.306;8.500;2023-04-27T14:18:28;31.90;21.78
9723;DHT22;4900;49.306;8.500;2023-04-27T14:20:53;31.64;22.49
9723;DHT22;4900;49.306;8.500;2023-04-27T14:23:20;31.68;22.56
9723;DHT22;4900;49.306;8.500;2023-04-27T14:25:46;31.69;22.89
9723;DHT22;4900;49.306;8.500;2023-04-27T14:28:12;31.72;22.70
9723;DHT22;4900;49.306;8.500;2023-04-27T14:30:39;31.95;22.54
9723;DHT22;4900;49.306;8.500;2023-04-27T14:33:05;31.97;22.42
9723;DHT22;4900;49.306;8.500;2023-04-27T14:35:33;32.06;22.56
9723;DHT22;4900;49.306;8.500;2023-04-27T14:37:58;32.03;22.50
9723;DHT22;4900;49.306;8.500;2023-04-27T14:40:27;32.26;22.61
9723;DHT22;4900;49.306;8.500;2023-04-27T14:42:53;32.17;22.15
9723;DHT22;4900;49.306;8.500;2023-04-27T14:45:18;32.22;22.48
9723;DHT22;4900;49.306;8.500;2023-04-27T14:47:43;32.37;22.60
9723;DHT22;4900;49.306;8.500;2023-04-27T14:50:09;32.45;22.42
9723;DHT22;4900;49.306;8.500;2023-04-27T14:52:36;32.53;22.29
9723;DHT22;4900;49.306;8.500;2023-04-27T14:55:01;32.49;21.87
9723;DHT22;4900;49.306;8.500;2023-04-27T14:57:26;32.14;21.83
9723;DHT22;4900;49.306;8.500;2023-04-27T14:59:52;31.62;22.32
9723;DHT22;4900;49.306;8.500;2023-04-27T15:02:17;31.65;22.77
9723;DHT22;4900;49.306;8.500;2023-04-27T15:04:43;31.74;22.94
9723;DHT22;4900;49.306;8.500;2023-04-27T15:07:08;31.68;22.91
9723;DHT22;4900;49.306;8.500;2023-04-27T15:09:34;31.85;22.66
9723;DHT22;4900;49.306;8.500;2023-04-27T15:11:59;31.78;22.88
9723;DHT22;4900;49.306;8.500;2023-04-27T15:14:26;31.86;22.76
9723;DHT22;4900;49.306;8.500;2023-04-27T15:16:51;31.72;22.40
9723;DHT22;4900;49.306;8.500;2023-04-27T15:19:16;31.61;22.92
9723;DHT22;4900;49.306;8.500;2023-04-27T15:21:42;31.29;22.66
9723;DHT22;4900;49.306;8.500;2023-04-27T15:24:07;31.12;23.33
9723;DHT22;4900;49.306;8.500;2023-04-27T15:26:33;30.90;23.63
9723;DHT22;4900;49.306;8.500;2023-04-27T15:28:58;30.64;24.00
9723;DHT22;4900;49.306;8.500;2023-04-27T15:31:25;30.47;24.14
9723;DHT22;4900;49.306;8.500;2023-04-27T15:33:50;30.33;23.86
9723;DHT22;4900;49.306;8.500;2023-04-27T15:36:17;30.38;24.52
9723;DHT22;4900;49.306;8.500;2023-04-27T15:38:43;30.34;24.75
9723;DHT22;4900;49.306;8.500;2023-04-27T15:41:08;30.23;25.19
9723;DHT22;4900;49.306;8.500;2023-04-27T15:43:34;30.17;25.66
9723;DHT22;4900;49.306;8.500;2023-04-27T15:46:03;30.20;25.76
9723;DHT22;4900;49.306;8.500;2023-04-27T15:48:29;30.23;25.97
9723;DHT22;4900;49.306;8.500;2023-04-27T15:50:55;30.47;26.05
9723;DHT22;4900;49.306;8.500;2023-04-27T15:53:20;30.69;25.70
9723;DHT22;4900;49.306;8.500;2023-04-27T15:55:45;30.86;25.36
9723;DHT22;4900;49.306;8.500;2023-04-27T15:58:11;30.74;24.78
9723;DHT22;4900;49.306;8.500;2023-04-27T16:00:36;30.74;25.13
9723;DHT22;4900;49.306;8.500;2023-04-27T16:03:03;30.51;24.51
9723;DHT22;4900;49.306;8.500;2023-04-27T16:05:28;30.21;24.92
9723;DHT22;4900;49.306;8.500;2023-04-27T16:07:54;29.95;25.13
9723;DHT22;4900;49.306;8.500;2023-04-27T16:10:19;29.86;25.34